Time;durP1;ratioP1;P1;durP2;ratioP2;P2;SDS_P1;SDS_P2;PMS_P1;PMS_P2;Temp;Humidity;BMP_temperature;BMP_pressure;BME280_temperature;BME280_humidity;BME280_pressure;Samples;Min_cycle;Max_cycle;Signal;HPM_P1;HPM_P2
2023/01/01 00:01:07;;;;;;;1999.90;999.90;;;;;;;11.71;100.00;99122.03;5033883;28;20033;-72
2023/01/01 00:03:32;;;;;;;1999.90;999.90;;;;;;;11.72;100.00;99126.41;5036451;28;20112;-73
2023/01/01 00:05:58;;;;;;;1999.90;999.90;;;;;;;11.77;100.00;99123.69;5034879;28;20025;-75
2023/01/01 00:08:23;;;;;;;1999.90;999.90;;;;;;;11.78;100.00;99124.47;5033395;28;20025;-72
2023/01/01 00:10:48;;;;;;;1999.90;999.90;;;;;;;11.83;100.00;99119.00;5033250;28;20021;-73
2023/01/01 00:13:14;;;;;;;1999.90;999.90;;;;;;;11.76;100.00;99116.53;5033189;28;20468;-72
2023/01/01 00:15:39;;;;;;;1999.90;999.90;;;;;;;11.81;100.00;99112.97;5033638;28;20035;-72
2023/01/01 00:18:05;;;;;;;1999.90;999.90;;;;;;;11.83;100.00;99110.78;5033153;28;20135;-73
2023/01/01 00:20:30;;;;;;;1999.90;999.90;;;;;;;11.86;100.00;99110.22;5033054;28;20495;-71
2023/01/01 00:22:55;;;;;;;1999.90;999.90;;;;;;;11.91;100.00;99120.34;5033832;28;20037;-72
2023/01/01 00:25:21;;;;;;;1999.90;999.90;;;;;;;11.91;100.00;99109.38;5033595;28;20021;-72
2023/01/01 00:27:46;;;;;;;1999.90;999.90;;;;;;;11.85;100.00;99103.09;5031916;28;21115;-72
2023/01/01 00:30:12;;;;;;;1999.90;999.90;;;;;;;11.85;100.00;99108.56;5033071;28;20064;-72
2023/01/01 00:32:37;;;;;;;1999.90;999.90;;;;;;;11.78;100.00;99106.13;5033142;28;20025;-72
2023/01/01 00:35:03;;;;;;;1999.90;999.90;;;;;;;11.81;100.00;99104.72;5033788;28;20101;-72
2023/01/01 00:37:31;;;;;;;1999.90;999.90;;;;;;;11.85;100.00;99107.75;5033091;28;20075;-72
2023/01/01 00:39:56;;;;;;;1999.90;999.90;;;;;;;11.76;100.00;99113.81;5032587;28;20389;-72
2023/01/01 00:42:22;;;;;;;1999.90;999.90;;;;;;;11.78;100.00;99114.34;5032520;28;20033;-72
2023/01/01 00:44:47;;;;;;;1999.90;999.90;;;;;;;11.76;100.00;99119.28;5032590;28;20022;-72
2023/01/01 00:47:12;;;;;;;1999.90;999.90;;;;;;;11.80;100.00;99109.41;5032765;28;20409;-72
2023/01/01 00:49:38;;;;;;;1999.90;999.90;;;;;;;11.78;100.00;99119.81;5032684;28;20067;-72
2023/01/01 00:52:03;;;;;;;1999.90;999.90;;;;;;;11.80;100.00;99116.81;5032794;28;20014;-72
2023/01/01 00:54:29;;;;;;;1999.90;999.90;;;;;;;11.84;100.00;99111.63;5030973;28;20046;-73
2023/01/01 00:56:56;;;;;;;1999.90;999.90;;;;;;;11.81;100.00;99111.03;5032895;28;20033;-72
2023/01/01 00:59:21;;;;;;;1999.90;999.90;;;;;;;11.81;100.00;99105.56;5032046;28;20037;-72
2023/01/01 01:01:46;;;;;;;1999.90;999.90;;;;;;;11.84;100.00;99106.13;5032426;28;20101;-72
2023/01/01 01:04:12;;;;;;;1999.90;999.90;;;;;;;11.80;100.00;99117.66;5031969;28;20112;-73
2023/01/01 01:06:37;;;;;;;1999.90;999.90;;;;;;;11.81;100.00;99116.53;5032353;28;20380;-72
2023/01/01 01:09:03;;;;;;;1999.90;999.90;;;;;;;11.84;100.00;99111.63;5022134;28;20049;-73
2023/01/01 01:11:29;;;;;;;1999.90;999.90;;;;;;;11.78;100.00;99103.38;5019438;28;20026;-72
2023/01/01 01:13:56;;;;;;;1999.90;999.90;;;;;;;11.78;100.00;99111.59;5020003;28;20034;-72
2023/01/01 01:16:25;;;;;;;1999.90;999.90;;;;;;;11.77;100.00;99098.19;5021797;28;20030;-71
2023/01/01 01:18:58;;;;;;;1999.90;999.90;;;;;;;11.79;100.00;99099.53;5019942;28;20041;-72
2023/01/01 01:21:24;;;;;;;1999.90;999.90;;;;;;;11.72;100.00;99103.66;5019985;28;20042;-72
2023/01/01 01:23:50;;;;;;;1999.90;999.90;;;;;;;11.77;100.00;99114.63;5023476;28;20064;-72
2023/01/01 01:26:21;;;;;;;1999.90;999.90;;;;;;;11.74;100.00;99124.22;5023453;28;20025;-72
2023/01/01 01:28:47;;;;;;;1999.90;999.90;;;;;;;11.71;100.00;99113.81;5023181;28;20029;-72
2023/01/01 01:31:13;;;;;;;1999.90;999.90;;;;;;;11.76;100.00;99119.28;5020879;28;20032;-72
2023/01/01 01:33:38;;;;;;;1999.90;999.90;;;;;;;11.75;100.00;99106.66;5020730;28;20480;-72
2023/01/01 01:36:05;;;;;;;1999.90;999.90;;;;;;;11.83;100.00;99105.31;5018819;28;20025;-72
2023/01/01 01:38:31;;;;;;;1999.90;999.90;;;;;;;11.79;100.00;99090.50;5015794;28;20059;-71
2023/01/01 01:40:56;;;;;;;1999.90;999.90;;;;;;;11.75;100.00;99090.22;5013543;28;20029;-72
2023/01/01 01:43:48;;;;;;;1999.90;999.90;;;;;;;11.82;100.00;99095.44;5011922;28;20512;-72
2023/01/01 01:46:19;;;;;;;1999.90;999.90;;;;;;;11.73;100.00;99084.19;5014617;28;20029;-72
2023/01/01 01:48:49;;;;;;;1999.90;999.90;;;;;;;11.86;100.00;99087.47;5031172;28;20026;-72
2023/01/01 01:51:19;;;;;;;1999.90;999.90;;;;;;;11.95;100.00;99083.91;5030703;28;20035;-72
2023/01/01 01:53:50;;;;;;;1999.90;999.90;;;;;;;11.95;100.00;99085.81;5031468;28;20057;-72
2023/01/01 01:56:20;;;;;;;1999.90;999.90;;;;;;;11.91;100.00;99084.72;5032147;28;20118;-73
2023/01/01 01:58:46;;;;;;;1999.90;999.90;;;;;;;11.84;100.00;99084.19;5031689;28;20041;-73
2023/01/01 02:01:15;;;;;;;1999.90;999.90;;;;;;;11.81;100.00;99089.13;5031525;28;20030;-72
2023/01/01 02:03:56;;;;;;;1999.90;999.90;;;;;;;11.75;100.00;99092.97;5046698;28;20412;-72
2023/01/01 02:06:23;;;;;;;1999.90;999.90;;;;;;;11.75;100.00;99076.50;5031160;28;20032;-71
2023/01/01 02:08:49;;;;;;;1999.90;999.90;;;;;;;11.69;100.00;99083.06;5031454;28;20028;-71
2023/01/01 02:11:15;;;;;;;1999.90;999.90;;;;;;;11.68;100.00;99078.66;5031498;28;20030;-72
2023/01/01 02:13:40;;;;;;;1999.90;999.90;;;;;;;11.69;100.00;99080.31;5046091;28;20051;-72
2023/01/01 02:16:14;;;;;;;1999.90;999.90;;;;;;;11.64;100.00;99076.75;5031288;28;20083;-72
2023/01/01 02:19:01;;;;;;;1999.90;999.90;;;;;;;11.66;100.00;99078.13;5031695;28;20029;-73
2023/01/01 02:21:48;;;;;;;1999.90;999.90;;;;;;;11.70;100.00;99071.03;5031881;28;20123;-72
2023/01/01 02:24:35;;;;;;;1999.90;999.90;;;;;;;11.70;100.00;99068.31;5033166;28;20030;-73
2023/01/01 02:27:33;;;;;;;1999.90;999.90;;;;;;;11.64;100.00;99069.38;5032695;28;20155;-73
2023/01/01 02:30:05;;;;;;;1999.90;999.90;;;;;;;11.55;100.00;99076.50;5030283;28;20171;-72
2023/01/01 02:32:40;;;;;;;1999.90;999.90;;;;;;;11.50;100.00;99060.03;5030965;28;20075;-73
2023/01/01 02:38:01;;;;;;;1999.90;999.90;;;;;;;11.57;100.00;99062.50;5030560;28;20512;-72
2023/01/01 02:40:27;;;;;;;1999.90;999.90;;;;;;;11.62;100.00;99062.53;5030550;28;20037;-72
2023/01/01 02:42:54;;;;;;;1999.90;999.90;;;;;;;11.65;100.00;99070.19;5030846;28;20036;-72
2023/01/01 02:45:20;;;;;;;1999.90;999.90;;;;;;;11.66;100.00;99058.94;5030289;28;20034;-72
2023/01/01 02:47:45;;;;;;;1999.90;999.90;;;;;;;11.64;100.00;99052.94;5030743;28;20037;-72
2023/01/01 02:50:22;;;;;;;1999.90;999.90;;;;;;;11.56;100.00;99050.72;5046247;28;20057;-72
2023/01/01 02:53:25;;;;;;;1999.90;999.90;;;;;;;11.55;100.00;99054.59;5030453;28;20041;-73
2023/01/01 02:56:23;;;;;;;1999.90;999.90;;;;;;;11.57;100.00;99057.84;5046821;28;20037;-70
2023/01/01 03:02:06;;;;;;;1999.90;999.90;;;;;;;11.59;100.00;99057.59;5030611;28;20127;-73
2023/01/01 03:04:45;;;;;;;1999.90;999.90;;;;;;;11.57;100.00;99052.38;5030800;28;20389;-73
2023/01/01 03:07:33;;;;;;;1999.90;999.90;;;;;;;11.55;100.00;99051.00;5046029;28;20033;-72
2023/01/01 03:10:22;;;;;;;1999.90;999.90;;;;;;;11.57;100.00;99054.28;5030220;28;20037;-72
2023/01/01 03:13:00;;;;;;;1999.90;999.90;;;;;;;11.60;100.00;99051.81;5030591;28;20026;-73
2023/01/01 03:16:01;;;;;;;1999.90;999.90;;;;;;;11.56;100.00;99066.38;5030811;28;20071;-73
2023/01/01 03:18:36;;;;;;;1999.90;999.90;;;;;;;11.62;100.00;99060.59;5020944;28;20048;-74
2023/01/01 03:21:06;;;;;;;1999.90;999.90;;;;;;;11.61;100.00;99058.97;5032811;28;20025;-72
2023/01/01 03:23:45;;;;;;;1999.90;999.90;;;;;;;11.56;100.00;99061.69;5034360;28;20048;-72
2023/01/01 03:26:13;;;;;;;1999.90;999.90;;;;;;;11.52;100.00;99059.78;5033632;28;20076;-72
2023/01/01 03:28:59;;;;;;;1999.90;999.90;;;;;;;11.51;100.00;99058.97;5031408;28;20025;-73
2023/01/01 03:31:25;;;;;;;;;;;;;;;11.50;100.00;99057.31;5031525;28;20033;-73
2023/01/01 03:33:53;;;;;;;;;;;;;;;11.52;100.00;99060.63;5030439;28;19921;-73
2023/01/01 03:36:24;;;;;;;1999.90;999.90;;;;;;;11.51;100.00;99058.97;5030366;28;19917;-73
2023/01/01 03:39:04;;;;;;;1999.90;999.90;;;;;;;11.54;100.00;99057.59;5045743;28;20402;-72
2023/01/01 03:42:02;;;;;;;1999.90;999.90;;;;;;;11.53;100.00;99050.44;5030579;28;20725;-72
2023/01/01 03:44:40;;;;;;;1999.90;999.90;;;;;;;11.52;100.00;99059.78;5027083;28;20044;-73
2023/01/01 03:47:06;;;;;;;1999.90;999.90;;;;;;;11.50;100.00;99042.78;5030143;28;20036;-72
2023/01/01 03:49:35;;;;;;;1999.90;999.90;;;;;;;11.45;100.00;99049.09;5030862;28;20025;-73
2023/01/01 03:52:49;;;;;;;1999.90;999.90;;;;;;;11.51;100.00;99048.00;5033685;28;20025;-72
2023/01/01 03:55:24;;;;;;;1999.90;999.90;;;;;;;11.49;100.00;99041.97;5032103;28;20072;-73
2023/01/01 03:58:06;;;;;;;1999.90;999.90;;;;;;;11.58;100.00;99036.75;5033882;28;20060;-73
2023/01/01 04:01:04;;;;;;;1999.90;999.90;;;;;;;11.56;100.00;99044.44;5033789;28;20287;-73
2023/01/01 04:03:31;;;;;;;1999.90;999.90;;;;;;;11.61;100.00;99038.94;5023643;28;20045;-72
2023/01/01 04:05:57;;;;;;;1999.90;999.90;;;;;;;11.64;100.00;99046.63;5033679;28;20056;-72
2023/01/01 04:08:22;;;;;;;1999.90;999.90;;;;;;;11.62;100.00;99041.41;5033230;28;20033;-74
2023/01/01 04:10:56;;;;;;;1999.90;999.90;;;;;;;11.59;100.00;99044.69;5033306;28;20025;-73
2023/01/01 04:13:22;;;;;;;1999.90;999.90;;;;;;;11.64;100.00;99046.63;5032941;28;20120;-72
2023/01/01 04:15:47;;;;;;;1999.90;999.90;;;;;;;11.64;100.00;99046.63;5033183;28;20049;-73
2023/01/01 04:18:12;;;;;;;1999.90;999.90;;;;;;;11.65;100.00;99053.75;5033100;28;20109;-73
2023/01/01 04:20:38;;;;;;;1999.90;999.90;;;;;;;11.61;100.00;99048.00;5035169;28;20083;-73
2023/01/01 04:23:05;;;;;;;1999.90;999.90;;;;;;;11.55;100.00;99046.34;5033492;28;20103;-73
2023/01/01 04:25:31;;;;;;;1999.90;999.90;;;;;;;11.58;100.00;99044.97;5033390;28;20051;-73
2023/01/01 04:27:57;;;;;;;1999.90;999.90;;;;;;;11.56;100.00;99041.72;5033394;28;20025;-73
2023/01/01 04:30:23;;;;;;;1999.90;999.90;;;;;;;11.57;100.00;99044.16;5033787;28;20113;-72
2023/01/01 04:32:48;;;;;;;1999.90;999.90;;;;;;;11.53;100.00;99037.56;5032710;28;20084;-72
2023/01/01 04:35:14;;;;;;;1999.90;999.90;;;;;;;11.49;100.00;99033.75;5048350;28;20038;-73
2023/01/01 04:37:41;;;;;;;1999.90;999.90;;;;;;;11.58;100.00;99039.50;5032649;28;20028;-73
2023/01/01 04:40:08;;;;;;;1999.90;999.90;;;;;;;11.48;100.00;99034.03;5047818;28;20374;-72
2023/01/01 04:42:33;;;;;;;1999.90;999.90;;;;;;;11.50;100.00;99040.03;5032759;28;20028;-73
2023/01/01 04:44:59;;;;;;;1999.90;999.90;;;;;;;11.50;100.00;99046.34;5033066;28;20025;-72
2023/01/01 04:47:28;;;;;;;1999.90;999.90;;;;;;;11.54;100.00;99044.72;5031201;28;20030;-73
2023/01/01 04:49:53;;;;;;;1999.90;999.90;;;;;;;11.46;100.00;99045.28;5032565;28;20025;-73
2023/01/01 04:52:19;;;;;;;1999.90;999.90;;;;;;;11.51;100.00;99045.25;5032181;28;20048;-73
2023/01/01 04:54:44;;;;;;;1999.90;999.90;;;;;;;11.50;100.00;99040.88;5032096;28;20115;-73
2023/01/01 04:57:10;;;;;;;1999.90;999.90;;;;;;;11.51;100.00;99042.53;5033765;28;20072;-73
2023/01/01 04:59:35;;;;;;;1999.90;999.90;;;;;;;11.52;100.00;99041.44;5047876;28;20032;-72
2023/01/01 05:02:00;;;;;;;1999.90;999.90;;;;;;;11.59;100.00;99044.69;5031792;28;20087;-73
2023/01/01 05:04:26;;;;;;;1999.90;999.90;;;;;;;11.53;100.00;99044.97;5032275;28;20075;-73
2023/01/01 05:06:51;;;;;;;1999.90;999.90;;;;;;;11.47;100.00;99037.84;5032100;28;20481;-73
2023/01/01 05:09:17;;;;;;;1999.90;999.90;;;;;;;11.48;100.00;99042.25;5029749;28;20071;-72
2023/01/01 05:11:42;;;;;;;1999.90;999.90;;;;;;;11.50;100.00;99049.09;5020225;28;20068;-73
2023/01/01 05:14:09;;;;;;;1999.90;999.90;;;;;;;11.55;100.00;99049.09;5031499;28;20081;-73
2023/01/01 05:16:37;;;;;;;1999.90;999.90;;;;;;;11.55;100.00;99043.63;5018582;28;20046;-73
2023/01/01 05:19:03;;;;;;;1999.90;999.90;;;;;;;11.48;100.00;99043.06;5011848;28;20036;-73
2023/01/01 05:21:31;;;;;;;1999.90;999.90;;;;;;;11.54;100.00;99038.41;5011905;28;20034;-73
2023/01/01 05:24:00;;;;;;;1999.90;999.90;;;;;;;11.54;100.00;99033.75;5011391;28;20026;-72
2023/01/01 05:26:30;;;;;;;1999.90;999.90;;;;;;;11.43;100.00;99037.59;5012038;28;20541;-73
2023/01/01 05:28:56;;;;;;;1999.90;999.90;;;;;;;11.38;100.00;99031.28;5026459;28;20029;-73
2023/01/01 05:31:24;;;;;;;1999.90;999.90;;;;;;;11.34;100.00;99031.00;5031519;28;21677;-73
2023/01/01 05:33:51;;;;;;;1999.90;999.90;;;;;;;11.29;100.00;99041.97;5029767;28;20040;-73
2023/01/01 05:36:19;;;;;;;1999.90;999.90;;;;;;;11.18;100.00;99021.94;5031284;28;20029;-73
2023/01/01 05:38:45;;;;;;;1999.90;999.90;;;;;;;11.29;100.00;99039.22;5032767;28;20029;-72
2023/01/01 05:41:13;;;;;;;1999.90;999.90;;;;;;;11.27;100.00;99030.47;5031285;28;20010;-73
2023/01/01 05:43:39;;;;;;;1999.90;999.90;;;;;;;11.41;100.00;99028.81;5029467;28;20079;-73
2023/01/01 05:46:09;;;;;;;1999.90;999.90;;;;;;;11.35;100.00;99029.91;5030913;28;20425;-73
2023/01/01 05:48:37;;;;;;;1999.90;999.90;;;;;;;11.43;100.00;99031.28;5031028;28;20029;-72
2023/01/01 05:51:07;;;;;;;1999.90;999.90;;;;;;;11.45;100.00;99020.88;5031113;28;20037;-73
2023/01/01 05:53:33;;;;;;;1999.90;999.90;;;;;;;11.44;100.00;99031.00;5030703;28;20516;-72
2023/01/01 05:55:59;;;;;;;1999.90;999.90;;;;;;;11.44;100.00;99031.00;5031216;28;20546;-67
2023/01/01 05:58:26;;;;;;;1999.90;999.90;;;;;;;11.46;100.00;99026.09;5030926;28;20025;-73
2023/01/01 06:00:51;;;;;;;1999.90;999.90;;;;;;;11.50;100.00;99027.16;5031003;28;20450;-73
2023/01/01 06:03:17;;;;;;;1999.90;999.90;;;;;;;11.48;100.00;99018.41;5031102;28;20091;-72
2023/01/01 06:05:46;;;;;;;1999.90;999.90;;;;;;;11.56;100.00;99028.81;5030723;28;20031;-72
2023/01/01 06:08:11;;;;;;;1999.90;999.90;;;;;;;11.49;100.00;99028.28;5031430;28;20033;-72
2023/01/01 06:10:37;;;;;;;1999.90;999.90;;;;;;;11.49;100.00;99025.53;5031089;28;20026;-73
2023/01/01 06:13:02;;;;;;;1999.90;999.90;;;;;;;11.47;100.00;99024.97;5029762;28;20032;-73
2023/01/01 06:15:27;;;;;;;1999.90;999.90;;;;;;;11.54;100.00;99024.69;5031831;28;20996;-74
2023/01/01 06:17:53;;;;;;;1999.90;999.90;;;;;;;11.54;100.00;99025.53;5032147;28;20072;-75
2023/01/01 06:20:18;;;;;;;1999.90;999.90;;;;;;;11.57;100.00;99030.47;5034707;28;20029;-76
2023/01/01 06:22:44;;;;;;;1999.90;999.90;;;;;;;11.56;100.00;99025.25;5033342;28;20044;-74
2023/01/01 06:25:10;;;;;;;1999.90;999.90;;;;;;;11.49;100.00;99031.03;5031916;28;20021;-74
2023/01/01 06:27:35;;;;;;;1999.90;999.90;;;;;;;11.53;100.00;99034.00;5031565;28;20412;-74
2023/01/01 06:30:02;;;;;;;1999.90;999.90;;;;;;;11.51;100.00;99031.56;5030365;28;20044;-74
2023/01/01 06:32:27;;;;;;;1999.90;999.90;;;;;;;11.54;100.00;99036.50;5030254;28;20064;-73
2023/01/01 06:34:52;;;;;;;1999.90;999.90;;;;;;;11.50;100.00;99040.88;5030127;28;20450;-72
2023/01/01 06:37:17;;;;;;;1999.90;999.90;;;;;;;11.54;100.00;99028.25;5030410;28;20546;-74
2023/01/01 06:39:43;;;;;;;1999.90;999.90;;;;;;;11.52;100.00;99030.47;5030290;28;20033;-74
2023/01/01 06:42:08;;;;;;;1999.90;999.90;;;;;;;11.51;100.00;99037.03;5031051;28;20021;-75
2023/01/01 06:44:34;;;;;;;1999.90;999.90;;;;;;;11.55;100.00;99037.31;5030260;28;20389;-73
2023/01/01 06:46:59;;;;;;;1999.90;999.90;;;;;;;11.54;100.00;99036.50;5030425;28;20144;-74
2023/01/01 06:49:24;;;;;;;1999.90;999.90;;;;;;;11.55;100.00;99042.78;5030139;28;20370;-75
2023/01/01 06:51:50;;;;;;;1999.90;999.90;;;;;;;11.54;100.00;99052.94;5030451;28;20033;-74
2023/01/01 06:54:15;;;;;;;1999.90;999.90;;;;;;;11.54;100.00;99055.66;5033059;28;20099;-74
2023/01/01 06:56:40;;;;;;;1999.90;999.90;;;;;;;11.51;100.00;99041.69;5031203;28;20032;-74
2023/01/01 06:59:06;;;;;;;1999.90;999.90;;;;;;;11.49;100.00;99052.94;5030276;28;20029;-74
2023/01/01 07:01:34;;;;;;;1999.90;999.90;;;;;;;11.51;100.00;99053.47;5029575;28;20038;-74
2023/01/01 07:04:02;;;;;;;1999.90;999.90;;;;;;;11.54;100.00;99058.41;5030033;28;20389;-75
2023/01/01 07:06:29;;;;;;;1999.90;999.90;;;;;;;11.55;100.00;99065.53;5029786;28;20041;-72
2023/01/01 07:08:55;;;;;;;1999.90;999.90;;;;;;;11.58;100.00;99066.91;5029962;28;20018;-72
2023/01/01 07:11:21;;;;;;;1999.90;999.90;;;;;;;11.61;100.00;99083.63;5029857;28;20041;-73
2023/01/01 07:13:46;;;;;;;1999.90;999.90;;;;;;;11.58;100.00;99075.13;5028643;28;20064;-72
2023/01/01 07:16:12;;;;;;;1999.90;999.90;;;;;;;11.59;100.00;99057.59;5029682;28;20520;-72
2023/01/01 07:18:38;;;;;;;1999.90;999.90;;;;;;;11.56;100.00;99050.72;5029922;28;20029;-72
2023/01/01 07:21:05;;;;;;;1999.90;999.90;;;;;;;11.63;100.00;99059.50;5029950;28;20032;-72
2023/01/01 07:23:33;;;;;;;1999.90;999.90;;;;;;;11.61;100.00;99067.19;5030033;28;20038;-73
2023/01/01 07:25:59;;;;;;;1999.90;999.90;;;;;;;11.60;100.00;99060.03;5033240;28;20112;-71
2023/01/01 07:28:25;;;;;;;1999.90;999.90;;;;;;;11.63;100.00;99067.72;5033708;28;20026;-73
2023/01/01 07:30:54;;;;;;;1999.90;999.90;;;;;;;11.62;100.00;99079.75;5033465;28;20032;-72
2023/01/01 07:33:22;;;;;;;1999.90;999.90;;;;;;;11.63;100.00;99073.19;5033318;28;20025;-72
2023/01/01 07:35:48;;;;;;;1999.90;999.90;;;;;;;11.66;100.00;99077.31;5033224;28;20030;-72
2023/01/01 07:38:14;;;;;;;1999.90;999.90;;;;;;;11.73;100.00;99077.88;5033557;28;20036;-71
2023/01/01 07:40:42;;;;;;;1999.90;999.90;;;;;;;11.68;100.00;99078.66;5033175;28;20025;-72
2023/01/01 07:43:07;;;;;;;1999.90;999.90;;;;;;;11.75;100.00;99086.66;5031821;28;20059;-71
2023/01/01 07:45:36;;;;;;;1999.90;999.90;;;;;;;11.78;100.00;99080.63;5021244;28;20032;-72
2023/01/01 07:48:01;;;;;;;1999.90;999.90;;;;;;;11.78;100.00;99086.94;5018397;28;20386;-72
2023/01/01 07:50:30;;;;;;;1999.90;999.90;;;;;;;11.86;100.00;99090.22;5013021;28;20030;-71
2023/01/01 07:52:55;;;;;;;1999.90;999.90;;;;;;;11.84;100.00;99089.69;5013060;28;20406;-72
2023/01/01 07:55:21;;;;;;;1999.90;999.90;;;;;;;11.69;100.00;99085.81;5013572;28;20037;-72
2023/01/01 07:57:47;;;;;;;1999.90;999.90;;;;;;;11.78;100.00;99088.84;5013936;28;20544;-72
2023/01/01 08:00:16;;;;;;;1999.90;999.90;;;;;;;11.81;100.00;99093.78;5013463;28;20028;-71
2023/01/01 08:02:41;;;;;;;1999.90;999.90;;;;;;;11.91;100.00;99101.16;5013357;28;20036;-72
2023/01/01 08:05:07;;;;;;;1999.90;999.90;;;;;;;11.93;100.00;99094.34;5024914;28;20022;-72
2023/01/01 08:07:32;;;;;;;1999.90;999.90;;;;;;;11.98;100.00;99104.47;5032786;28;20042;-72
2023/01/01 08:09:58;;;;;;;1999.90;999.90;;;;;;;12.02;100.00;99100.06;5031319;28;20035;-72
2023/01/01 08:12:24;;;;;;;1999.90;999.90;;;;;;;12.07;100.00;99102.78;5031533;28;20013;-73
2023/01/01 08:14:49;;;;;;;1999.90;999.90;;;;;;;12.11;100.00;99095.66;5033082;28;20478;-73
2023/01/01 08:17:15;;;;;;;1999.90;999.90;;;;;;;12.02;100.00;99108.31;5033001;28;20529;-73
2023/01/01 08:19:40;;;;;;;1999.90;999.90;;;;;;;12.03;100.00;99102.53;5032207;28;20489;-73
2023/01/01 08:22:05;;;;;;;1999.90;999.90;;;;;;;12.00;100.00;99099.50;5032598;28;20025;-72
2023/01/01 08:24:31;;;;;;;1999.90;999.90;;;;;;;11.98;100.00;99101.72;5032357;28;20819;-73
2023/01/01 08:26:58;;;;;;;1999.90;999.90;;;;;;;12.06;100.00;99099.22;5032971;28;20018;-73
2023/01/01 08:29:24;;;;;;;1999.90;999.90;;;;;;;12.07;100.00;99097.31;5032287;28;20026;-73
2023/01/01 08:31:49;;;;;;;1999.90;999.90;;;;;;;12.16;100.00;99098.38;5032466;28;20477;-73
2023/01/01 08:34:14;;;;;;;1999.90;999.90;;;;;;;12.19;100.00;99104.16;5032559;28;20076;-73
2023/01/01 08:36:40;;;;;;;1999.90;999.90;;;;;;;12.11;100.00;99106.63;5031467;28;20039;-73
2023/01/01 08:39:06;;;;;;;1999.90;999.90;;;;;;;12.14;100.00;99106.09;5025145;28;20168;-73
2023/01/01 08:41:32;;;;;;;1999.90;999.90;;;;;;;12.23;100.00;99101.66;5029718;28;20034;-69
2023/01/01 08:43:58;;;;;;;1999.90;999.90;;;;;;;12.22;100.00;99097.28;5032129;28;20026;-73
2023/01/01 08:46:23;;;;;;;1999.90;999.90;;;;;;;12.21;100.00;99104.72;5032136;28;20033;-72
2023/01/01 08:48:49;;;;;;;1999.90;999.90;;;;;;;12.29;100.00;99108.78;5027836;28;20030;-72
2023/01/01 08:51:15;;;;;;;1999.90;999.90;;;;;;;12.31;100.00;99118.38;5020174;28;20433;-72
2023/01/01 08:53:40;;;;;;;1999.90;999.90;;;;;;;12.41;100.00;99111.22;5019799;28;20545;-72
2023/01/01 08:56:08;;;;;;;1999.90;999.90;;;;;;;12.48;100.00;99123.56;5020029;28;20079;-72
2023/01/01 08:58:38;;;;;;;1999.90;999.90;;;;;;;12.29;100.00;99111.53;5015553;28;20026;-73
2023/01/01 09:01:05;;;;;;;1999.90;999.90;;;;;;;12.27;100.00;99121.97;5010908;28;20087;-72
2023/01/01 09:03:31;;;;;;;1999.90;999.90;;;;;;;12.24;100.00;99119.78;5014471;28;20098;-71
2023/01/01 09:05:56;;;;;;;1999.90;999.90;;;;;;;12.25;100.00;99118.66;5014300;28;20478;-72
2023/01/01 09:08:22;;;;;;;1999.90;999.90;;;;;;;12.27;100.00;99117.31;5011774;28;20029;-73
2023/01/01 09:10:48;;;;;;;1999.90;999.90;;;;;;;12.22;100.00;99127.44;5012026;28;20034;-73
2023/01/01 09:13:19;;;;;;;1999.90;999.90;;;;;;;12.38;100.00;99126.31;5015832;28;20030;-72
2023/01/01 09:15:45;;;;;;;1999.90;999.90;;;;;;;12.47;100.00;99132.88;5011889;28;20108;-73
2023/01/01 09:18:11;;;;;;;1999.90;999.90;;;;;;;12.56;100.00;99128.47;5012177;28;20075;-73
2023/01/01 09:20:37;;;;;;;1999.90;999.90;;;;;;;12.43;100.00;99126.34;5013170;28;20030;-73
2023/01/01 09:23:03;;;;;;;1999.90;999.90;;;;;;;12.48;100.00;99129.06;5013412;28;20053;-73
2023/01/01 09:25:29;;;;;;;1999.90;999.90;;;;;;;12.62;100.00;99135.63;5011748;28;20030;-72
2023/01/01 09:27:58;;;;;;;1999.90;999.90;;;;;;;12.80;100.00;99143.22;5012041;28;20079;-72
2023/01/01 09:30:24;;;;;;;1999.90;999.90;;;;;;;12.86;100.00;99133.88;5011528;28;20026;-72
2023/01/01 09:32:49;;;;;;;1999.90;999.90;;;;;;;12.84;100.00;99130.56;5011441;28;20367;-72
2023/01/01 09:35:15;;;;;;;1999.90;999.90;;;;;;;12.92;100.00;99140.16;5011487;28;20509;-72
2023/01/01 09:37:40;;;;;;;1999.90;999.90;;;;;;;12.74;100.00;99130.63;5011571;28;20034;-73
2023/01/01 09:40:08;;;;;;;1999.90;999.90;;;;;;;12.66;100.00;99130.34;5010239;28;20026;-72
2023/01/01 09:42:45;;;;;;;1999.90;999.90;;;;;;;12.49;100.00;99127.97;5011484;28;20058;-73
2023/01/01 09:45:26;;;;;;;1999.90;999.90;;;;;;;12.46;100.00;99120.28;5012319;28;20117;-73
2023/01/01 09:47:56;;;;;;;1999.90;999.90;;;;;;;12.38;100.00;99122.75;5012288;28;20029;-72
2023/01/01 09:50:55;;;;;;;1999.90;999.90;;;;;;;12.41;100.00;99112.06;5011220;28;20159;-72
2023/01/01 09:53:47;;;;;;;1999.90;999.90;;;;;;;12.26;100.00;99109.34;4988515;28;20049;-73
2023/01/01 09:56:19;;;;;;;1999.90;999.90;;;;;;;12.17;100.00;99111.84;5010626;28;20141;-75
2023/01/01 09:58:44;;;;;;;1999.90;999.90;;;;;;;12.19;100.00;99103.31;5012296;28;20073;-73
2023/01/01 10:01:31;;;;;;;1999.90;999.90;;;;;;;12.17;100.00;99105.53;5016059;28;20072;-75
2023/01/01 10:03:59;;;;;;;1999.90;999.90;;;;;;;12.14;100.00;99101.44;5031268;28;20034;-73
2023/01/01 10:06:29;;;;;;;1999.90;999.90;;;;;;;12.20;100.00;99107.72;5030788;28;20503;-73
2023/01/01 10:09:20;;;;;;;1999.90;999.90;;;;;;;12.17;100.00;99100.03;5030346;28;20033;-73
2023/01/01 10:12:14;;;;;;;1999.90;999.90;;;;;;;12.17;100.00;99095.38;5026295;28;20402;-73
2023/01/01 10:14:47;;;;;;;1999.90;999.90;;;;;;;12.15;100.00;99096.75;5031067;28;20065;-73
2023/01/01 10:17:36;;;;;;;1999.90;999.90;;;;;;;12.10;100.00;99094.84;5018331;28;20124;-74
2023/01/01 10:20:19;;;;;;;1999.90;999.90;;;;;;;12.08;100.00;99088.00;5010115;28;20034;-74
2023/01/01 10:22:48;;;;;;;1999.90;999.90;;;;;;;12.10;100.00;99083.88;5009487;28;20429;-72
2023/01/01 10:25:20;;;;;;;1999.90;999.90;;;;;;;12.12;100.00;99087.16;5010605;28;20546;-73
2023/01/01 10:28:03;;;;;;;1999.90;999.90;;;;;;;12.11;100.00;99090.19;5010924;28;20061;-73
2023/01/01 10:30:29;;;;;;;1999.90;999.90;;;;;;;12.16;100.00;99087.41;5009295;28;20033;-73
2023/01/01 10:32:56;;;;;;;1999.90;999.90;;;;;;;12.21;100.00;99076.44;5010772;28;20037;-73
2023/01/01 10:35:31;;;;;;;1999.90;999.90;;;;;;;12.32;100.00;99091.78;5010770;28;20402;-73
2023/01/01 10:38:00;;;;;;;1999.90;999.90;;;;;;;12.42;100.00;99085.44;5010567;28;20030;-73
2023/01/01 10:40:28;;;;;;;1999.90;999.90;;;;;;;12.52;100.00;99085.41;5010261;28;20053;-72
2023/01/01 10:42:56;;;;;;;1999.90;999.90;;;;;;;12.51;100.00;99092.00;5010576;28;20022;-73
2023/01/01 10:45:27;;;;;;;1999.90;999.90;;;;;;;12.85;100.00;99096.50;5009198;28;20067;-73
2023/01/01 10:48:17;;;;;;;1999.90;999.90;;;;;;;12.84;100.00;99102.31;5009332;28;20034;-73
2023/01/01 10:50:48;;;;;;;1999.90;999.90;;;;;;;12.82;100.00;99090.75;5010195;28;20434;-73
2023/01/01 10:53:30;;;;;;;1999.90;999.90;;;;;;;13.04;100.00;99101.34;5010267;28;20412;-73
2023/01/01 10:56:02;;;;;;;1999.90;999.90;;;;;;;13.20;100.00;99092.78;5010426;28;20034;-72
2023/01/01 10:58:46;;;;;;;1999.90;999.90;;;;;;;14.09;100.00;99098.97;5026035;28;20080;-72
2023/01/01 11:01:17;;;;;;;1999.90;999.90;;;;;;;15.38;100.00;99099.63;5014105;28;20509;-73
2023/01/01 11:04:16;;;;;;;1999.90;999.90;;;;;;;15.60;100.00;99097.06;5014453;28;20038;-73